createdAt,value
2019-02-27T00:02:29.832Z,67.46
2019-02-27T00:05:01.573Z,67.64
2019-02-27T00:07:34.581Z,67.70
2019-02-27T00:10:08.122Z,67.89
2019-02-27T00:12:40.352Z,67.91
2019-02-27T00:15:12.321Z,67.95
2019-02-27T00:17:44.868Z,67.90
2019-02-27T00:20:18.349Z,67.96
2019-02-27T00:22:50.607Z,67.99
2019-02-27T00:25:23.610Z,67.90
2019-02-27T00:27:55.403Z,67.87
2019-02-27T00:30:27.154Z,67.87
2019-02-27T00:32:59.098Z,67.82
2019-02-27T00:35:30.916Z,67.79
2019-02-27T00:38:04.394Z,67.73
2019-02-27T00:40:39.328Z,67.79
2019-02-27T00:43:09.703Z,67.79
2019-02-27T00:45:41.543Z,67.76
2019-02-27T00:48:14.780Z,67.78
2019-02-27T00:50:46.559Z,67.81
2019-02-27T00:53:18.935Z,67.89
2019-02-27T00:55:50.723Z,67.84
2019-02-27T00:58:26.807Z,67.70
2019-02-27T01:00:56.183Z,67.74
2019-02-27T01:03:28.207Z,67.66
2019-02-27T01:06:00.042Z,67.87
2019-02-27T01:08:32.232Z,68.18
2019-02-27T01:11:04.018Z,67.82
2019-02-27T01:13:35.819Z,67.74
2019-02-27T01:16:07.587Z,67.93
2019-02-27T01:18:39.858Z,67.95
2019-02-27T01:21:11.661Z,67.86
2019-02-27T01:23:44.622Z,67.96
2019-02-27T01:26:17.976Z,68.13
2019-02-27T01:28:49.815Z,68.07
2019-02-27T01:31:24.053Z,68.22
2019-02-27T01:33:56.395Z,68.24
2019-02-27T01:36:28.195Z,68.45
2019-02-27T01:39:00.131Z,68.56
2019-02-27T01:41:32.130Z,68.60
2019-02-27T01:44:03.925Z,68.68
2019-02-27T01:46:35.772Z,68.85
2019-02-27T01:49:07.834Z,69.14
2019-02-27T01:51:39.628Z,69.52
2019-02-27T01:54:12.274Z,69.75
2019-02-27T01:56:45.279Z,69.90
2019-02-27T01:59:17.814Z,70.15
2019-02-27T02:01:49.788Z,70.38
2019-02-27T02:04:21.895Z,70.26
2019-02-27T02:06:53.655Z,70.47
2019-02-27T02:09:39.889Z,70.60
2019-02-27T02:12:23.236Z,70.50
2019-02-27T02:15:47.169Z,70.46
2019-02-27T02:19:10.699Z,70.49
2019-02-27T02:21:59.903Z,70.85
2019-02-27T02:25:11.915Z,70.93
2019-02-27T02:28:48.332Z,70.84
2019-02-27T02:31:53.871Z,71.06
2019-02-27T02:35:52.964Z,71.18
2019-02-27T02:39:00.144Z,71.24
2019-02-27T02:42:08.234Z,71.25
2019-02-27T02:45:13.418Z,71.64
2019-02-27T02:48:51.397Z,71.75
2019-02-27T02:51:54.781Z,71.92
2019-02-27T02:54:59.762Z,71.98
2019-02-27T02:58:29.510Z,72.12
2019-02-27T03:01:45.694Z,72.18
2019-02-27T03:05:07.722Z,72.22
2019-02-27T03:08:28.490Z,72.36
2019-02-27T03:11:54.866Z,72.34
2019-02-27T03:15:00.308Z,72.36
2019-02-27T03:18:32.878Z,72.27
2019-02-27T03:21:29.763Z,72.45
2019-02-27T03:25:10.485Z,72.46
2019-02-27T03:28:40.589Z,72.52
2019-02-27T03:31:45.731Z,72.57
2019-02-27T03:35:10.723Z,72.56
2019-02-27T03:38:12.814Z,72.63
2019-02-27T03:41:37.800Z,72.50
2019-02-27T03:45:05.299Z,72.38
2019-02-27T03:48:15.898Z,72.30
2019-02-27T03:51:24.676Z,72.15
2019-02-27T03:54:35.203Z,71.98
2019-02-27T03:58:03.798Z,71.83
2019-02-27T04:00:57.536Z,71.94
2019-02-27T04:04:22.640Z,72.07
2019-02-27T04:08:08.880Z,71.92
2019-02-27T04:10:41.144Z,71.64
2019-02-27T04:13:13.297Z,71.73
2019-02-27T04:15:45.099Z,71.66
2019-02-27T04:18:14.557Z,71.56
2019-02-27T04:20:50.882Z,71.34
2019-02-27T04:23:21.462Z,71.27
2019-02-27T04:25:53.250Z,71.30
2019-02-27T04:28:29.580Z,71.32
2019-02-27T04:30:58.878Z,71.48
2019-02-27T04:33:30.944Z,71.60
2019-02-27T04:36:02.758Z,71.61
2019-02-27T04:38:34.767Z,71.71
2019-02-27T04:41:06.589Z,72.54
2019-02-27T04:43:38.599Z,72.43
2019-02-27T04:46:10.528Z,72.25
2019-02-27T04:48:42.528Z,72.15
2019-02-27T04:51:16.926Z,72.16
2019-02-27T04:53:48.598Z,72.11
2019-02-27T04:56:23.134Z,72.06
2019-02-27T04:58:53.916Z,72.24
2019-02-27T05:01:26.885Z,72.43
2019-02-27T05:04:01.074Z,72.74
2019-02-27T05:06:32.221Z,72.75
2019-02-27T05:09:04.377Z,72.78
2019-02-27T05:11:37.762Z,72.92
2019-02-27T05:14:10.166Z,73.06
2019-02-27T05:16:42.132Z,73.09
2019-02-27T05:19:15.282Z,72.97
2019-02-27T05:21:47.209Z,73.02
2019-02-27T05:24:19.337Z,73.06
2019-02-27T05:26:51.090Z,73.08
2019-02-27T05:29:23.145Z,72.95
2019-02-27T05:31:55.098Z,73.13
2019-02-27T05:34:27.101Z,73.21
2019-02-27T05:36:58.875Z,73.07
2019-02-27T05:39:30.763Z,73.06
2019-02-27T05:42:06.138Z,73.16
2019-02-27T05:44:36.251Z,73.24
2019-02-27T05:47:08.651Z,73.30
2019-02-27T05:49:41.843Z,73.17
2019-02-27T05:52:14.364Z,73.15
2019-02-27T05:54:46.964Z,73.26
2019-02-27T05:57:21.091Z,73.33
2019-02-27T05:59:52.357Z,73.37
2019-02-27T06:02:25.568Z,73.37
2019-02-27T06:04:59.212Z,73.47
2019-02-27T06:07:31.756Z,73.42
2019-02-27T06:10:03.868Z,73.51
2019-02-27T06:12:38.139Z,73.42
2019-02-27T06:15:13.778Z,73.50
2019-02-27T06:17:48.787Z,73.54
2019-02-27T06:20:20.480Z,73.36
2019-02-27T06:22:52.257Z,73.51
2019-02-27T06:25:24.163Z,73.46
2019-02-27T06:27:57.226Z,73.32
2019-02-27T06:30:30.784Z,73.48
2019-02-27T06:33:02.718Z,73.53
2019-02-27T06:35:34.594Z,73.37
2019-02-27T06:38:06.434Z,73.24
2019-02-27T06:40:42.097Z,73.43
2019-02-27T06:43:11.953Z,73.24
2019-02-27T06:45:46.389Z,72.96
2019-02-27T06:48:19.033Z,72.72
2019-02-27T06:50:50.794Z,72.66
2019-02-27T06:53:22.638Z,72.41
2019-02-27T06:55:54.705Z,72.35
2019-02-27T06:58:26.500Z,72.15
2019-02-27T07:00:58.351Z,71.70
2019-02-27T07:03:32.876Z,71.37
2019-02-27T07:06:04.200Z,70.85
2019-02-27T07:08:38.087Z,70.34
2019-02-27T07:11:11.261Z,69.98
2019-02-27T07:13:43.318Z,69.59
2019-02-27T07:16:15.333Z,69.24
2019-02-27T07:18:47.355Z,68.86
2019-02-27T07:21:19.247Z,68.48
2019-02-27T07:23:51.039Z,68.06
2019-02-27T07:26:22.850Z,67.67
2019-02-27T07:28:54.653Z,67.17
2019-02-27T07:31:26.703Z,66.72
2019-02-27T07:33:58.849Z,66.52
2019-02-27T07:36:30.699Z,66.20
2019-02-27T07:39:02.463Z,66.09
2019-02-27T07:41:36.194Z,66.15
2019-02-27T07:44:07.998Z,65.74
2019-02-27T07:46:39.873Z,65.42
2019-02-27T07:49:11.794Z,64.96
2019-02-27T07:51:43.968Z,64.67
2019-02-27T07:54:15.829Z,64.32
2019-02-27T07:56:48.085Z,63.96
2019-02-27T07:59:19.849Z,63.51
2019-02-27T08:01:51.918Z,63.18
2019-02-27T08:04:23.839Z,62.64
2019-02-27T08:06:55.683Z,62.01
2019-02-27T08:09:29.890Z,60.90
2019-02-27T08:12:01.195Z,61.26
2019-02-27T08:14:36.870Z,60.87
2019-02-27T08:17:16.987Z,60.12
2019-02-27T08:19:42.882Z,60.18
2019-02-27T08:22:14.081Z,59.75
2019-02-27T08:24:45.933Z,59.13
2019-02-27T08:27:18.003Z,58.42
2019-02-27T08:29:49.915Z,58.19
2019-02-27T08:32:22.130Z,58.21
2019-02-27T08:34:54.244Z,57.62
2019-02-27T08:37:26.359Z,57.28
2019-02-27T08:39:58.117Z,56.84
2019-02-27T08:42:30.190Z,56.34
2019-02-27T08:45:02.037Z,56.13
2019-02-27T08:47:34.222Z,55.76
2019-02-27T08:50:08.256Z,55.03
2019-02-27T08:52:40.320Z,55.16
2019-02-27T08:55:19.978Z,54.86
2019-02-27T08:57:49.718Z,54.24
2019-02-27T09:00:23.498Z,54.41
2019-02-27T09:02:55.798Z,53.91
2019-02-27T09:05:29.346Z,54.10
2019-02-27T09:08:01.398Z,54.08
2019-02-27T09:10:33.238Z,53.51
2019-02-27T09:13:06.097Z,53.21
2019-02-27T09:15:38.301Z,53.75
2019-02-27T09:18:10.385Z,54.45
2019-02-27T09:20:42.418Z,53.94
2019-02-27T09:23:14.512Z,53.29
2019-02-27T09:25:46.340Z,52.88
2019-02-27T09:28:18.439Z,52.54
2019-02-27T09:30:50.226Z,52.36
2019-02-27T09:33:22.294Z,51.71
2019-02-27T09:35:54.378Z,51.60
2019-02-27T09:38:26.507Z,50.99
2019-02-27T09:40:58.499Z,50.62
2019-02-27T09:43:32.229Z,51.06
2019-02-27T09:46:04.205Z,50.27
2019-02-27T09:48:36.298Z,50.32
2019-02-27T09:51:09.790Z,50.08
2019-02-27T09:53:42.171Z,50.01
2019-02-27T09:56:14.101Z,50.34
2019-02-27T09:58:46.289Z,50.74
2019-02-27T10:01:19.953Z,50.33
2019-02-27T10:03:55.261Z,49.95
2019-02-27T10:06:26.177Z,50.02
2019-02-27T10:08:58.990Z,49.35
2019-02-27T10:11:31.590Z,48.87
2019-02-27T10:14:03.521Z,47.92
2019-02-27T10:16:35.379Z,49.10
2019-02-27T10:19:07.387Z,48.75
2019-02-27T10:21:41.255Z,48.19
2019-02-27T10:24:13.080Z,49.23
2019-02-27T10:26:44.865Z,49.64
2019-02-27T10:29:16.833Z,50.21
2019-02-27T10:31:48.655Z,49.80
2019-02-27T10:34:20.970Z,49.88
2019-02-27T10:36:53.023Z,49.78
2019-02-27T10:39:24.975Z,49.63
2019-02-27T10:41:56.789Z,50.25
2019-02-27T10:44:28.708Z,50.39
2019-02-27T10:47:00.786Z,50.54
2019-02-27T10:49:33.148Z,50.25
2019-02-27T10:52:05.321Z,50.07
2019-02-27T10:54:39.443Z,50.51
2019-02-27T10:57:10.844Z,50.51
2019-02-27T10:59:42.855Z,50.61
2019-02-27T11:02:14.688Z,51.24
2019-02-27T11:04:46.579Z,50.44
2019-02-27T11:07:18.636Z,50.65
2019-02-27T11:09:51.012Z,49.67
2019-02-27T11:12:23.950Z,50.31
2019-02-27T11:14:56.083Z,49.78
2019-02-27T11:17:28.934Z,50.32
2019-02-27T11:20:00.911Z,49.98
2019-02-27T11:22:33.887Z,49.50
2019-02-27T11:25:06.586Z,48.85
2019-02-27T11:27:38.997Z,48.93
2019-02-27T11:30:21.169Z,47.83
2019-02-27T11:32:56.902Z,47.18
2019-02-27T11:35:27.163Z,48.06
2019-02-27T11:37:58.983Z,47.98
2019-02-27T11:40:30.970Z,47.90
2019-02-27T11:43:06.341Z,46.68
2019-02-27T11:45:36.533Z,46.94
2019-02-27T11:48:08.305Z,46.48
2019-02-27T11:50:40.352Z,46.10
2019-02-27T11:53:12.585Z,45.93
2019-02-27T11:55:47.138Z,44.43
2019-02-27T11:58:20.048Z,45.20
2019-02-27T12:00:52.063Z,44.47
2019-02-27T12:03:24.006Z,43.59
2019-02-27T12:05:56.424Z,44.68
2019-02-27T12:08:30.233Z,44.17
2019-02-27T12:11:02.318Z,43.17
2019-02-27T12:13:34.879Z,42.68
2019-02-27T12:16:10.654Z,43.23
2019-02-27T12:18:42.572Z,43.42
2019-02-27T12:21:14.566Z,42.08
2019-02-27T12:23:46.600Z,41.32
2019-02-27T12:26:18.711Z,40.49
2019-02-27T12:28:52.671Z,40.63
2019-02-27T12:31:24.052Z,39.60
2019-02-27T12:33:56.811Z,38.69
2019-02-27T12:36:28.912Z,38.04
2019-02-27T12:39:00.920Z,37.11
2019-02-27T12:41:34.692Z,35.32
2019-02-27T12:44:06.464Z,34.94
2019-02-27T12:46:38.358Z,35.17
2019-02-27T12:49:10.159Z,36.09
2019-02-27T12:51:42.243Z,36.00
2019-02-27T12:54:33.266Z,36.94
2019-02-27T12:57:05.319Z,35.08
2019-02-27T12:59:37.175Z,34.89
2019-02-27T13:02:10.847Z,34.37
2019-02-27T13:04:42.497Z,33.27
2019-02-27T13:07:15.643Z,32.82
2019-02-27T13:09:47.614Z,31.69
2019-02-27T13:12:19.855Z,29.68
2019-02-27T13:14:51.658Z,28.93
2019-02-27T13:17:23.582Z,27.81
2019-02-27T13:19:55.341Z,27.75
2019-02-27T13:22:29.178Z,28.04
2019-02-27T13:25:00.848Z,26.10
2019-02-27T13:27:32.688Z,23.28
2019-02-27T13:30:08.724Z,21.82
2019-02-27T13:32:39.149Z,21.48
2019-02-27T13:35:11.277Z,20.37
2019-02-27T13:37:44.560Z,18.73
2019-02-27T13:40:18.471Z,18.26
2019-02-27T13:42:53.513Z,16.52
2019-02-27T13:45:25.698Z,17.35
2019-02-27T13:47:59.069Z,17.19
2019-02-27T13:50:31.217Z,21.43
2019-02-27T13:53:03.260Z,23.87
2019-02-27T13:55:35.445Z,26.23
2019-02-27T13:58:07.490Z,27.19
2019-02-27T14:00:39.707Z,29.71
2019-02-27T14:03:12.624Z,30.66
2019-02-27T14:05:45.365Z,32.17
2019-02-27T14:08:17.497Z,33.03
2019-02-27T14:10:50.427Z,34.39
2019-02-27T14:13:23.054Z,34.10
2019-02-27T14:15:54.830Z,35.26
2019-02-27T14:18:26.735Z,32.48
2019-02-27T14:20:58.988Z,31.28
2019-02-27T14:23:32.516Z,32.35
2019-02-27T14:26:06.717Z,32.85
2019-02-27T14:28:38.635Z,34.75
2019-02-27T14:31:10.562Z,36.35
2019-02-27T14:33:42.685Z,37.42
2019-02-27T14:36:14.507Z,37.18
2019-02-27T14:38:46.703Z,36.75
2019-02-27T14:41:18.882Z,37.43
2019-02-27T14:43:50.920Z,37.38
2019-02-27T14:46:22.847Z,38.45
2019-02-27T14:48:56.140Z,39.25
2019-02-27T14:51:28.049Z,40.15
2019-02-27T14:54:00.514Z,40.63
2019-02-27T14:56:32.676Z,40.93
2019-02-27T14:59:04.694Z,41.35
2019-02-27T15:01:36.531Z,41.37
2019-02-27T15:04:08.321Z,37.07
2019-02-27T15:06:40.290Z,33.08
2019-02-27T15:09:12.320Z,34.03
2019-02-27T15:11:48.273Z,35.98
2019-02-27T15:14:18.547Z,37.60
2019-02-27T15:16:50.368Z,38.45
2019-02-27T15:19:22.517Z,39.80
2019-02-27T15:21:54.417Z,40.18
2019-02-27T15:24:26.560Z,40.65
2019-02-27T15:26:58.468Z,41.00
2019-02-27T15:29:30.567Z,41.67
2019-02-27T15:32:03.918Z,41.57
2019-02-27T15:34:35.975Z,41.04
2019-02-27T15:37:07.833Z,41.22
2019-02-27T15:39:40.386Z,40.97
2019-02-27T15:42:12.804Z,41.12
2019-02-27T15:44:44.872Z,41.94
2019-02-27T15:47:16.771Z,41.97
2019-02-27T15:49:49.493Z,42.35
2019-02-27T15:52:21.559Z,42.22
2019-02-27T15:54:55.549Z,42.83
2019-02-27T15:57:27.476Z,42.94
2019-02-27T16:00:00.095Z,43.17
2019-02-27T16:02:34.012Z,43.39
2019-02-27T16:05:09.118Z,43.89
2019-02-27T16:07:41.520Z,44.54
2019-02-27T16:10:16.843Z,44.61
2019-02-27T16:12:48.904Z,44.89
2019-02-27T16:15:22.651Z,44.99
2019-02-27T16:17:54.540Z,44.77
2019-02-27T16:20:26.557Z,45.09
2019-02-27T16:22:58.695Z,45.20
2019-02-27T16:25:31.876Z,45.89
2019-02-27T16:28:04.069Z,46.23
2019-02-27T16:30:37.179Z,46.31
2019-02-27T16:33:09.235Z,46.88
2019-02-27T16:35:42.908Z,46.71
2019-02-27T16:38:16.300Z,47.01
2019-02-27T16:40:52.072Z,46.90
2019-02-27T16:43:23.201Z,47.28
2019-02-27T16:45:55.247Z,47.22
2019-02-27T16:48:27.235Z,47.32
2019-02-27T16:51:00.646Z,47.35
2019-02-27T16:53:32.826Z,47.20
2019-02-27T16:56:04.761Z,47.32
2019-02-27T16:58:36.649Z,47.70
2019-02-27T17:01:10.001Z,47.66
2019-02-27T17:03:41.891Z,47.49
2019-02-27T17:06:14.146Z,47.45
2019-02-27T17:08:47.390Z,47.71
2019-02-27T17:11:19.251Z,47.60
2019-02-27T17:13:51.349Z,47.97
2019-02-27T17:16:23.308Z,47.92
2019-02-27T17:18:55.128Z,48.01
2019-02-27T17:21:27.042Z,48.12
2019-02-27T17:23:58.963Z,48.08
2019-02-27T17:26:31.016Z,48.13
2019-02-27T17:29:03.234Z,48.39
2019-02-27T17:31:35.573Z,48.73
2019-02-27T17:34:08.315Z,48.83
2019-02-27T17:36:41.289Z,48.84
2019-02-27T17:39:13.126Z,48.90
2019-02-27T17:41:45.386Z,49.21
2019-02-27T17:44:17.671Z,49.52
2019-02-27T17:46:54.388Z,49.61
2019-02-27T17:49:25.393Z,49.87
2019-02-27T17:51:56.965Z,50.26
2019-02-27T17:54:31.378Z,50.48
2019-02-27T17:57:02.769Z,50.26
2019-02-27T17:59:35.031Z,50.80
2019-02-27T18:02:07.842Z,51.26
2019-02-27T18:04:39.873Z,51.55
2019-02-27T18:07:12.058Z,51.66
2019-02-27T18:09:43.902Z,52.03
2019-02-27T18:12:16.248Z,52.59
2019-02-27T18:14:48.520Z,52.70
2019-02-27T18:17:21.242Z,53.07
2019-02-27T18:19:53.241Z,53.38
2019-02-27T18:22:25.386Z,53.65
2019-02-27T18:24:57.318Z,54.00
2019-02-27T18:27:29.271Z,54.03
2019-02-27T18:30:01.603Z,54.14
2019-02-27T18:32:34.325Z,54.20
2019-02-27T18:35:06.529Z,54.74
2019-02-27T18:37:38.827Z,55.30
2019-02-27T18:40:13.402Z,55.12
2019-02-27T18:42:45.507Z,55.50
2019-02-27T18:45:19.003Z,56.25
2019-02-27T18:47:51.645Z,56.19
2019-02-27T18:50:24.817Z,56.85
2019-02-27T18:52:58.188Z,57.45
2019-02-27T18:55:31.377Z,57.62
2019-02-27T18:58:04.473Z,57.97
2019-02-27T19:00:36.934Z,58.33
2019-02-27T19:03:09.396Z,59.03
2019-02-27T19:05:42.271Z,59.29
2019-02-27T19:08:14.758Z,59.23
2019-02-27T19:10:47.236Z,59.55
2019-02-27T19:13:19.606Z,60.11
2019-02-27T19:15:51.987Z,60.11
2019-02-27T19:18:24.575Z,60.31
2019-02-27T19:20:59.143Z,60.93
2019-02-27T19:23:30.756Z,60.92
2019-02-27T19:26:03.313Z,61.57
2019-02-27T19:28:35.856Z,61.70
2019-02-27T19:31:08.355Z,61.98
2019-02-27T19:33:42.047Z,62.27
2019-02-27T19:36:19.471Z,62.52
2019-02-27T19:38:52.729Z,62.36
2019-02-27T19:41:26.090Z,63.31
2019-02-27T19:43:59.346Z,63.57
2019-02-27T19:46:32.183Z,63.91
2019-02-27T19:49:06.096Z,64.30
2019-02-27T19:51:39.183Z,64.18
2019-02-27T19:54:14.934Z,64.42
2019-02-27T19:56:47.557Z,65.11
2019-02-27T19:59:24.685Z,64.78
2019-02-27T20:01:55.850Z,65.28
2019-02-27T20:04:29.758Z,65.40
2019-02-27T20:07:02.603Z,65.43
2019-02-27T20:09:35.312Z,65.96
2019-02-27T20:12:09.575Z,66.48
2019-02-27T20:14:43.396Z,66.71
2019-02-27T20:17:16.808Z,66.62
2019-02-27T20:19:49.998Z,66.79
2019-02-27T20:22:22.913Z,66.55
2019-02-27T20:24:56.715Z,67.07
2019-02-27T20:27:30.271Z,67.16
2019-02-27T20:30:04.140Z,66.81
2019-02-27T20:32:40.016Z,66.88
2019-02-27T20:35:14.299Z,67.38
2019-02-27T20:37:47.884Z,67.19
2019-02-27T20:40:22.278Z,67.29
2019-02-27T20:42:56.344Z,67.89
2019-02-27T20:45:30.248Z,67.57
2019-02-27T20:48:05.156Z,67.41
2019-02-27T20:50:42.583Z,67.80
2019-02-27T20:53:16.324Z,67.45
2019-02-27T20:55:50.201Z,67.39
2019-02-27T20:58:22.944Z,67.58
2019-02-27T21:00:56.795Z,67.58
2019-02-27T21:03:30.652Z,67.67
2019-02-27T21:06:05.350Z,67.53
2019-02-27T21:08:38.164Z,67.50
2019-02-27T21:11:10.509Z,67.47
2019-02-27T21:13:42.516Z,67.65
2019-02-27T21:16:15.344Z,67.27
2019-02-27T21:18:48.243Z,67.19
2019-02-27T21:21:20.741Z,67.17
2019-02-27T21:23:52.677Z,67.16
2019-02-27T21:26:24.741Z,67.58
2019-02-27T21:28:58.847Z,67.34
2019-02-27T21:31:30.726Z,67.20
2019-02-27T21:34:03.120Z,67.21
2019-02-27T21:36:36.780Z,67.60
2019-02-27T21:39:09.509Z,67.56
2019-02-27T21:41:45.591Z,67.43
2019-02-27T21:44:25.307Z,67.58
2019-02-27T21:46:51.807Z,68.44
2019-02-27T21:49:24.061Z,68.16
2019-02-27T21:51:56.289Z,68.24
2019-02-27T21:54:28.303Z,68.32
2019-02-27T21:57:00.595Z,68.18
2019-02-27T21:59:36.349Z,68.34
2019-02-27T22:02:07.439Z,68.63
2019-02-27T22:04:41.272Z,68.23
2019-02-27T22:07:13.381Z,68.64
2019-02-27T22:09:45.505Z,68.44
2019-02-27T22:12:17.703Z,68.43
2019-02-27T22:14:49.487Z,68.50
2019-02-27T22:17:21.631Z,68.68
2019-02-27T22:19:54.731Z,68.89
2019-02-27T22:22:27.090Z,68.41
2019-02-27T22:24:58.905Z,69.06
2019-02-27T22:27:31.038Z,68.70
2019-02-27T22:30:02.905Z,69.24
2019-02-27T22:32:35.693Z,68.95
2019-02-27T22:35:07.905Z,69.03
2019-02-27T22:37:40.111Z,68.74
2019-02-27T22:40:14.793Z,68.56
2019-02-27T22:42:48.471Z,68.78
2019-02-27T22:45:20.469Z,68.37
2019-02-27T22:47:53.816Z,68.35
2019-02-27T22:50:26.559Z,68.43
2019-02-27T22:52:58.650Z,68.06
2019-02-27T22:55:30.529Z,67.92
2019-02-27T22:58:02.501Z,67.84
2019-02-27T23:01:10.359Z,67.83
2019-02-27T23:03:58.008Z,67.90
2019-02-27T23:06:30.437Z,67.85
2019-02-27T23:09:02.959Z,67.97
2019-02-27T23:11:36.759Z,67.77
2019-02-27T23:14:10.581Z,67.91
2019-02-27T23:16:42.387Z,68.04
2019-02-27T23:19:14.632Z,67.91
2019-02-27T23:21:46.692Z,67.65
2019-02-27T23:24:18.452Z,67.36
2019-02-27T23:26:54.313Z,67.41
2019-02-27T23:29:23.993Z,67.33
2019-02-27T23:31:55.864Z,67.40
2019-02-27T23:34:28.033Z,67.17
2019-02-27T23:37:00.073Z,66.98
2019-02-27T23:39:32.177Z,67.04
2019-02-27T23:42:03.969Z,66.90
2019-02-27T23:44:38.493Z,66.87
2019-02-27T23:47:09.276Z,66.92
2019-02-27T23:49:41.348Z,66.92
2019-02-27T23:52:13.398Z,66.81
2019-02-27T23:54:45.215Z,66.77
2019-02-27T23:57:17.026Z,66.97
2019-02-27T23:59:48.886Z,66.94
